Time;durP1;ratioP1;P1;durP2;ratioP2;P2;SDS_P1;SDS_P2;PMS_P1;PMS_P2;Temp;Humidity;BMP_temperature;BMP_pressure;BME280_temperature;BME280_humidity;BME280_pressure;Samples;Min_cycle;Max_cycle;Signal;HPM_P1;HPM_P2
2021/09/04 00:00:11;;;;;;;33.75;23.23;;;11.40;99.90;;;;;;5091447;28;20048;-76
2021/09/04 00:02:37;;;;;;;41.58;24.58;;;11.30;99.90;;;;;;5091818;28;20044;-76
2021/09/04 00:05:05;;;;;;;40.47;23.35;;;11.40;99.90;;;;;;5091029;28;20102;-76
2021/09/04 00:07:32;;;;;;;32.95;22.80;;;11.40;99.90;;;;;;5091024;28;20110;-76
2021/09/04 00:09:59;;;;;;;36.28;23.42;;;11.40;99.90;;;;;;5091261;28;20048;-76
2021/09/04 00:12:26;;;;;;;34.72;21.30;;;11.40;99.90;;;;;;5092706;28;20097;-75
2021/09/04 00:14:53;;;;;;;36.80;24.38;;;11.40;99.90;;;;;;5087718;28;20052;-75
2021/09/04 00:17:22;;;;;;;36.72;23.10;;;11.40;99.90;;;;;;5071283;28;20489;-75
2021/09/04 00:19:48;;;;;;;36.00;21.92;;;11.40;99.90;;;;;;5072897;28;20049;-75
2021/09/04 00:22:15;;;;;;;39.03;24.23;;;11.50;99.90;;;;;;5093649;28;20082;-76
2021/09/04 00:24:41;;;;;;;36.53;22.08;;;11.50;99.90;;;;;;5094653;28;20085;-76
2021/09/04 00:27:08;;;;;;;34.47;21.38;;;11.60;99.90;;;;;;5088460;28;20450;-75
2021/09/04 00:29:36;;;;;;;27.88;20.27;;;11.60;99.90;;;;;;5074614;28;20049;-75
2021/09/04 00:32:03;;;;;;;29.42;20.40;;;11.60;99.90;;;;;;5074453;28;20149;-75
2021/09/04 00:34:31;;;;;;;29.63;19.70;;;11.60;99.90;;;;;;5074160;28;20079;-75
2021/09/04 00:36:58;;;;;;;34.25;21.20;;;11.60;99.90;;;;;;5081678;28;20040;-75
2021/09/04 00:39:24;;;;;;;33.05;20.65;;;11.50;99.90;;;;;;5094194;28;20048;-76
2021/09/04 00:41:51;;;;;;;37.65;21.83;;;11.60;99.90;;;;;;5094402;28;20454;-79
2021/09/04 00:44:20;;;;;;;32.00;20.15;;;11.60;99.90;;;;;;5094834;28;20095;-76
2021/09/04 00:46:46;;;;;;;33.30;20.88;;;11.50;99.90;;;;;;5094809;28;20044;-76
2021/09/04 00:49:14;;;;;;;28.33;19.13;;;11.50;99.90;;;;;;5093444;28;20516;-77
2021/09/04 00:51:42;;;;;;;27.65;18.48;;;11.30;99.90;;;;;;5094360;28;20097;-76
2021/09/04 00:54:09;;;;;;;29.77;18.63;;;11.20;99.90;;;;;;5094212;28;20048;-76
2021/09/04 00:56:38;;;;;;;32.65;19.08;;;11.00;99.90;;;;;;5094286;28;20052;-76
2021/09/04 00:59:06;;;;;;;32.20;20.75;;;10.90;99.90;;;;;;5094493;28;20480;-76
2021/09/04 01:01:33;;;;;;;31.52;19.88;;;10.90;99.90;;;;;;5076012;28;20114;-75
2021/09/04 01:04:00;;;;;;;30.42;17.85;;;10.90;99.90;;;;;;5073903;28;20534;-75
2021/09/04 01:06:27;;;;;;;31.58;20.88;;;10.90;99.90;;;;;;5089353;28;20040;-76
2021/09/04 01:08:54;;;;;;;30.00;18.45;;;11.00;99.90;;;;;;5093902;28;20121;-76
2021/09/04 01:11:22;;;;;;;29.00;19.38;;;11.10;99.90;;;;;;5094223;28;20109;-76
2021/09/04 01:13:49;;;;;;;27.77;19.50;;;11.20;99.90;;;;;;5093954;28;20368;-75
2021/09/04 01:16:15;;;;;;;25.52;18.33;;;11.20;99.90;;;;;;5093725;28;20129;-78
2021/09/04 01:18:42;;;;;;;26.98;17.30;;;11.10;99.90;;;;;;5092850;28;20055;-76
2021/09/04 01:21:10;;;;;;;27.33;17.27;;;11.20;99.90;;;;;;5093252;28;20557;-76
2021/09/04 01:23:36;;;;;;;25.67;17.02;;;11.10;99.90;;;;;;5093577;28;20044;-76
2021/09/04 01:26:06;;;;;;;30.30;18.92;;;11.10;99.90;;;;;;5092669;28;20558;-75
2021/09/04 01:28:33;;;;;;;29.85;18.38;;;11.00;99.90;;;;;;5081768;28;20476;-75
2021/09/04 01:31:00;;;;;;;30.15;17.83;;;11.00;99.90;;;;;;5093596;28;20044;-75
2021/09/04 01:33:27;;;;;;;30.65;18.25;;;11.10;99.90;;;;;;5092822;28;20044;-76
2021/09/04 01:35:53;;;;;;;28.75;19.23;;;11.10;99.90;;;;;;5093229;28;20091;-76
2021/09/04 01:38:20;;;;;;;25.95;17.10;;;11.00;99.90;;;;;;5092919;28;20052;-76
2021/09/04 01:40:47;;;;;;;31.27;17.23;;;11.10;99.90;;;;;;5094623;28;20044;-76
2021/09/04 01:43:15;;;;;;;31.08;18.63;;;11.10;99.90;;;;;;5093595;28;20177;-77
2021/09/04 01:46:10;;;;;;;33.17;18.23;;;11.10;99.90;;;;;;5092846;28;20040;-76
2021/09/04 01:48:37;;;;;;;29.05;18.23;;;11.10;99.90;;;;;;5032369;28;20053;-76
2021/09/04 01:51:03;;;;;;;26.35;17.60;;;11.00;99.90;;;;;;5030199;28;20510;-76
2021/09/04 01:53:30;;;;;;;29.65;16.90;;;11.00;99.90;;;;;;5030730;28;20100;-77
2021/09/04 01:55:57;;;;;;;28.73;18.02;;;11.00;99.90;;;;;;5030815;28;20099;-77
2021/09/04 01:58:25;;;;;;;28.02;18.17;;;11.00;99.90;;;;;;5029767;28;20140;-76
2021/09/04 02:00:51;;;;;;;26.63;17.63;;;11.00;99.90;;;;;;5030507;28;20486;-76
2021/09/04 02:03:18;;;;;;;27.25;17.00;;;11.00;99.90;;;;;;5030358;28;20095;-76
2021/09/04 02:05:45;;;;;;;25.17;16.50;;;10.90;99.90;;;;;;5046839;28;20052;-76
2021/09/04 02:08:12;;;;;;;27.05;17.50;;;10.90;99.90;;;;;;5092732;28;20099;-75
2021/09/04 02:10:39;;;;;;;30.75;17.58;;;10.80;99.90;;;;;;5093050;28;20105;-76
2021/09/04 02:13:05;;;;;;;32.63;18.50;;;10.90;99.90;;;;;;5084004;28;20117;-75
2021/09/04 02:15:33;;;;;;;30.48;17.38;;;10.90;99.90;;;;;;5092748;28;20504;-75
2021/09/04 02:18:00;;;;;;;31.50;17.58;;;10.90;99.90;;;;;;5092731;28;20113;-75
2021/09/04 02:20:26;;;;;;;28.52;16.70;;;10.90;99.90;;;;;;5091949;28;20495;-75
2021/09/04 02:22:53;;;;;;;28.02;18.27;;;10.90;99.90;;;;;;5092774;28;20044;-76
2021/09/04 02:25:20;;;;;;;26.50;16.42;;;10.70;99.90;;;;;;5093034;28;20044;-75
2021/09/04 02:27:47;;;;;;;26.85;17.73;;;10.60;99.90;;;;;;5077351;28;20094;-75
2021/09/04 02:30:13;;;;;;;27.70;19.05;;;10.50;99.90;;;;;;5071726;28;20094;-75
2021/09/04 02:32:42;;;;;;;22.33;14.93;;;10.40;99.90;;;;;;5082216;28;20101;-74
2021/09/04 02:35:09;;;;;;;27.58;17.17;;;10.40;99.90;;;;;;5092033;28;20561;-76
2021/09/04 02:37:37;;;;;;;32.72;17.05;;;10.30;99.90;;;;;;5092979;28;20059;-76
2021/09/04 02:40:05;;;;;;;24.00;15.68;;;10.40;99.90;;;;;;5086070;28;20040;-76
2021/09/04 02:42:32;;;;;;;26.27;17.42;;;10.50;99.90;;;;;;5091628;28;20048;-76
2021/09/04 02:44:59;;;;;;;26.48;16.63;;;10.40;99.90;;;;;;5085205;28;20040;-76
2021/09/04 02:47:25;;;;;;;26.70;17.20;;;10.30;99.90;;;;;;5071826;28;20109;-77
2021/09/04 02:49:53;;;;;;;24.65;16.63;;;10.10;99.90;;;;;;5081267;28;20121;-76
2021/09/04 02:52:20;;;;;;;24.58;15.70;;;10.00;99.90;;;;;;5092565;28;20048;-77
2021/09/04 02:54:46;;;;;;;26.80;16.55;;;10.10;99.90;;;;;;5092530;28;20094;-77
2021/09/04 02:57:13;;;;;;;23.10;14.98;;;10.00;99.90;;;;;;5091664;28;20439;-77
2021/09/04 02:59:40;;;;;;;23.92;16.42;;;10.00;99.90;;;;;;5091315;28;20048;-77
2021/09/04 03:02:06;;;;;;;25.95;16.77;;;9.90;99.90;;;;;;5091867;28;20097;-77
2021/09/04 03:04:33;;;;;;;26.17;16.27;;;9.90;99.90;;;;;;5092257;28;20081;-77
2021/09/04 03:07:01;;;;;;;27.38;17.60;;;9.90;99.90;;;;;;5091930;28;20092;-76
2021/09/04 03:09:27;;;;;;;23.05;16.33;;;10.00;99.90;;;;;;5091289;28;20097;-76
2021/09/04 03:11:54;;;;;;;25.35;16.70;;;10.10;99.90;;;;;;5091774;28;20093;-78
2021/09/04 03:14:21;;;;;;;24.50;16.52;;;10.20;99.90;;;;;;5091672;28;20044;-76
2021/09/04 03:16:47;;;;;;;24.55;14.80;;;10.30;99.90;;;;;;5091675;28;20048;-76
2021/09/04 03:19:14;;;;;;;19.95;14.27;;;10.30;99.90;;;;;;5091607;28;20094;-78
2021/09/04 03:21:40;;;;;;;26.13;15.73;;;10.30;99.90;;;;;;5088261;28;20550;-75
2021/09/04 03:24:08;;;;;;;23.67;16.27;;;10.30;99.90;;;;;;5071580;28;20048;-76
2021/09/04 03:26:35;;;;;;;22.92;16.33;;;10.10;99.90;;;;;;5071548;28;20519;-76
2021/09/04 03:29:01;;;;;;;26.48;15.60;;;10.00;99.90;;;;;;5084170;28;20048;-75
2021/09/04 03:31:28;;;;;;;23.63;15.25;;;9.90;99.90;;;;;;5091180;28;20488;-76
2021/09/04 03:33:55;;;;;;;23.80;15.20;;;9.70;99.90;;;;;;5091893;28;20098;-74
2021/09/04 03:36:21;;;;;;;32.38;17.98;;;9.60;99.90;;;;;;5091504;28;20078;-76
2021/09/04 03:38:48;;;;;;;25.17;17.10;;;9.60;99.90;;;;;;5091135;28;20082;-75
2021/09/04 03:41:16;;;;;;;26.75;16.70;;;9.50;99.90;;;;;;5091201;28;20048;-76
2021/09/04 03:43:42;;;;;;;27.98;17.40;;;9.60;99.90;;;;;;5091513;28;20094;-75
2021/09/04 03:46:09;;;;;;;25.63;15.88;;;9.80;99.90;;;;;;5091252;28;20052;-75
2021/09/04 03:48:36;;;;;;;27.67;16.00;;;9.90;99.90;;;;;;5091018;28;20447;-76
2021/09/04 03:51:03;;;;;;;28.10;16.55;;;10.00;99.90;;;;;;5091577;28;20550;-76
2021/09/04 03:53:29;;;;;;;26.88;16.30;;;10.00;99.90;;;;;;5091466;28;20115;-76
2021/09/04 03:55:56;;;;;;;29.90;17.40;;;10.10;99.90;;;;;;5088589;28;20048;-76
2021/09/04 03:58:24;;;;;;;25.02;15.13;;;10.10;99.90;;;;;;5094531;28;20048;-76
2021/09/04 04:00:50;;;;;;;19.95;15.10;;;10.20;99.90;;;;;;5095123;28;20557;-77
2021/09/04 04:03:17;;;;;;;25.00;15.88;;;10.30;99.90;;;;;;5086328;28;20049;-76
2021/09/04 04:05:44;;;;;;;27.58;15.52;;;10.40;99.90;;;;;;5075633;28;20452;-76
2021/09/04 04:08:10;;;;;;;25.50;15.02;;;10.40;99.90;;;;;;5074611;28;20479;-75
2021/09/04 04:10:37;;;;;;;26.27;16.50;;;10.60;99.90;;;;;;5080289;28;20097;-75
2021/09/04 04:13:03;;;;;;;31.98;16.98;;;10.50;99.90;;;;;;5095171;28;20056;-75
2021/09/04 04:15:32;;;;;;;33.83;16.80;;;10.50;99.90;;;;;;5094894;28;20044;-74
2021/09/04 04:17:58;;;;;;;35.13;17.52;;;10.50;99.90;;;;;;5095249;28;20093;-75
2021/09/04 04:20:25;;;;;;;36.42;19.88;;;10.40;99.90;;;;;;5084354;28;20056;-75
2021/09/04 04:22:52;;;;;;;60.88;20.92;;;10.40;99.90;;;;;;5086412;28;20470;-76
2021/09/04 04:25:18;;;;;;;40.92;24.15;;;10.40;99.90;;;;;;5094558;28;20048;-76
2021/09/04 04:27:45;;;;;;;46.90;23.77;;;10.50;99.90;;;;;;5094599;28;20504;-75
2021/09/04 04:30:12;;;;;;;34.00;18.63;;;10.50;99.90;;;;;;5094264;28;20093;-77
2021/09/04 04:32:40;;;;;;;32.53;16.95;;;10.40;99.90;;;;;;5084243;28;20045;-76
2021/09/04 04:35:07;;;;;;;28.65;15.40;;;10.30;99.90;;;;;;5074680;28;20559;-76
2021/09/04 04:37:34;;;;;;;32.35;15.40;;;10.30;99.90;;;;;;5080287;28;20036;-76
2021/09/04 04:40:00;;;;;;;30.58;16.88;;;10.20;99.90;;;;;;5093920;28;20105;-76
2021/09/04 04:42:27;;;;;;;36.70;19.95;;;10.20;99.90;;;;;;5094404;28;20466;-76
2021/09/04 04:44:53;;;;;;;29.20;15.02;;;10.20;99.90;;;;;;5094780;28;20052;-77
2021/09/04 04:47:20;;;;;;;25.40;15.07;;;10.20;99.90;;;;;;5094719;28;20089;-76
2021/09/04 04:49:48;;;;;;;30.67;14.05;;;10.10;99.90;;;;;;5093645;28;20504;-75
2021/09/04 04:52:15;;;;;;;32.90;18.38;;;10.10;99.90;;;;;;5094528;28;20048;-75
2021/09/04 04:54:41;;;;;;;86.53;40.65;;;10.10;99.90;;;;;;5094256;28;20097;-75
2021/09/04 04:57:08;;;;;;;64.35;29.15;;;10.20;99.90;;;;;;5094468;28;20385;-75
2021/09/04 04:59:35;;;;;;;65.80;28.40;;;10.50;99.90;;;;;;5090827;28;20044;-75
2021/09/04 05:02:01;;;;;;;32.45;17.95;;;10.50;99.90;;;;;;5074139;28;20044;-75
2021/09/04 05:04:28;;;;;;;46.90;23.25;;;10.60;99.90;;;;;;5073782;28;20573;-76
2021/09/04 05:06:56;;;;;;;60.55;32.17;;;10.60;99.90;;;;;;5073645;28;20118;-76
2021/09/04 05:09:22;;;;;;;38.00;20.55;;;10.80;99.90;;;;;;5073931;28;20044;-75
2021/09/04 05:11:49;;;;;;;43.38;21.38;;;10.90;99.90;;;;;;5093520;28;20066;-75
2021/09/04 05:14:16;;;;;;;31.27;16.88;;;11.00;99.90;;;;;;5093283;28;20097;-74
2021/09/04 05:16:42;;;;;;;24.40;15.32;;;11.10;99.90;;;;;;5073786;28;20497;-74
2021/09/04 05:19:09;;;;;;;28.00;14.77;;;11.10;99.90;;;;;;5073027;28;20463;-75
2021/09/04 05:21:35;;;;;;;47.13;21.67;;;11.10;99.90;;;;;;5074475;28;20489;-74
2021/09/04 05:24:04;;;;;;;53.13;28.98;;;11.10;99.90;;;;;;5093497;28;20488;-75
2021/09/04 05:26:30;;;;;;;66.07;33.50;;;11.20;99.90;;;;;;5093479;28;20105;-76
2021/09/04 05:28:57;;;;;;;51.70;29.45;;;11.30;99.90;;;;;;5093301;28;20048;-79
2021/09/04 05:31:24;;;;;;;34.50;20.95;;;11.40;99.90;;;;;;5094129;28;20546;-77
2021/09/04 05:33:50;;;;;;;48.72;26.73;;;11.40;99.90;;;;;;5093567;28;20097;-76
2021/09/04 05:36:17;;;;;;;40.03;22.48;;;11.50;99.90;;;;;;5093400;28;20056;-76
2021/09/04 05:38:43;;;;;;;30.65;18.63;;;11.60;99.90;;;;;;5093062;28;20101;-77
2021/09/04 05:41:11;;;;;;;76.57;37.75;;;11.80;99.90;;;;;;5093925;28;20121;-77
2021/09/04 05:43:38;;;;;;;33.35;20.88;;;11.90;99.90;;;;;;5094498;28;20052;-78
2021/09/04 05:46:05;;;;;;;56.83;31.40;;;12.00;99.90;;;;;;5094995;28;20044;-76
2021/09/04 05:48:31;;;;;;;34.13;20.58;;;12.20;99.90;;;;;;5092704;28;20051;-76
2021/09/04 05:50:58;;;;;;;31.40;19.60;;;12.30;99.90;;;;;;5078725;28;20040;-76
2021/09/04 05:53:24;;;;;;;26.00;16.90;;;12.40;99.90;;;;;;5076586;28;20551;-77
2021/09/04 05:55:51;;;;;;;28.80;18.05;;;12.40;99.90;;;;;;5093879;28;20048;-77
2021/09/04 05:58:19;;;;;;;48.92;27.02;;;12.40;99.90;;;;;;5094108;28;20048;-78
2021/09/04 06:00:46;;;;;;;30.73;18.77;;;12.40;99.90;;;;;;5072887;28;20048;-76
2021/09/04 06:03:12;;;;;;;23.88;17.00;;;12.60;99.90;;;;;;5090427;28;20557;-77
2021/09/04 06:05:39;;;;;;;22.63;14.00;;;12.70;99.90;;;;;;5092787;28;20044;-77
2021/09/04 06:08:06;;;;;;;26.90;15.57;;;12.70;99.90;;;;;;5080947;28;20048;-77
2021/09/04 06:10:32;;;;;;;34.60;18.70;;;12.80;99.90;;;;;;5090234;28;20040;-76
2021/09/04 06:12:59;;;;;;;29.80;18.55;;;12.90;99.90;;;;;;5092880;28;20044;-77
2021/09/04 06:15:27;;;;;;;46.80;23.65;;;13.00;99.90;;;;;;5083925;28;20497;-74
2021/09/04 06:17:53;;;;;;;28.20;18.02;;;13.20;99.90;;;;;;5087878;28;20112;-75
2021/09/04 06:20:20;;;;;;;28.95;16.08;;;13.30;99.90;;;;;;5091565;28;20048;-76
2021/09/04 06:22:47;;;;;;;30.98;17.98;;;13.50;99.90;;;;;;5092895;28;20196;-75
2021/09/04 06:25:14;;;;;;;25.38;15.98;;;13.60;99.90;;;;;;5092584;28;20052;-74
2021/09/04 06:27:40;;;;;;;35.83;19.38;;;13.60;99.90;;;;;;5092443;28;20043;-74
2021/09/04 06:30:08;;;;;;;32.13;17.63;;;13.80;99.90;;;;;;5092223;28;20040;-75
2021/09/04 06:32:36;;;;;;;37.28;19.70;;;13.80;99.90;;;;;;5092470;28;20048;-76
2021/09/04 06:35:03;;;;;;;37.15;19.35;;;13.90;99.90;;;;;;5092451;28;20040;-76
2021/09/04 06:37:29;;;;;;;31.90;18.05;;;14.00;99.90;;;;;;5092445;28;20048;-74
2021/09/04 06:39:56;;;;;;;35.42;19.20;;;14.10;99.90;;;;;;5091783;28;20101;-74
2021/09/04 06:42:23;;;;;;;33.53;17.80;;;14.10;99.90;;;;;;5092321;28;20048;-76
2021/09/04 06:44:49;;;;;;;31.65;16.52;;;14.20;99.90;;;;;;5092105;28;20047;-77
2021/09/04 06:47:16;;;;;;;31.17;16.42;;;14.30;99.90;;;;;;5092125;28;20351;-75
2021/09/04 06:49:44;;;;;;;36.55;18.20;;;14.30;99.90;;;;;;5091641;28;20044;-76
2021/09/04 06:52:10;;;;;;;29.73;15.30;;;14.30;99.90;;;;;;5092435;28;20101;-75
2021/09/04 06:54:37;;;;;;;27.13;14.60;;;14.40;99.90;;;;;;5092186;28;20089;-73
2021/09/04 06:57:04;;;;;;;34.13;16.35;;;14.40;99.90;;;;;;5091962;28;20059;-73
2021/09/04 06:59:31;;;;;;;29.73;15.50;;;14.40;99.90;;;;;;5091616;28;20393;-73
2021/09/04 07:01:58;;;;;;;30.05;16.17;;;14.40;99.90;;;;;;5091690;28;20458;-73
2021/09/04 07:04:25;;;;;;;38.00;17.45;;;14.50;99.90;;;;;;5092056;28;20413;-73
2021/09/04 07:06:53;;;;;;;29.73;16.17;;;14.30;99.90;;;;;;5091975;28;20380;-74
2021/09/04 07:09:19;;;;;;;38.38;20.88;;;14.30;99.90;;;;;;5091409;28;20040;-74
2021/09/04 07:11:46;;;;;;;36.15;20.58;;;14.20;99.90;;;;;;5091801;28;20052;-73
2021/09/04 07:14:13;;;;;;;36.30;18.40;;;14.20;99.90;;;;;;5091656;28;20089;-73
2021/09/04 07:16:39;;;;;;;28.88;15.13;;;14.40;99.90;;;;;;5091981;28;20048;-74
2021/09/04 07:19:06;;;;;;;32.55;15.93;;;14.60;99.90;;;;;;5091418;28;20653;-73
2021/09/04 07:21:32;;;;;;;27.50;15.95;;;14.70;99.90;;;;;;5091750;28;20097;-73
2021/09/04 07:24:00;;;;;;;29.55;16.10;;;14.80;99.90;;;;;;5091559;28;20048;-74
2021/09/04 07:26:27;;;;;;;29.08;15.57;;;15.00;99.90;;;;;;5091623;28;20040;-73
2021/09/04 07:28:54;;;;;;;34.28;17.98;;;15.10;99.90;;;;;;5090989;28;20044;-74
2021/09/04 07:31:20;;;;;;;30.45;16.38;;;15.10;99.90;;;;;;5092652;28;20048;-74
2021/09/04 07:33:47;;;;;;;32.47;16.75;;;15.10;99.90;;;;;;5095901;28;20044;-75
2021/09/04 07:36:14;;;;;;;28.38;14.50;;;15.00;99.90;;;;;;5095675;28;20101;-75
2021/09/04 07:38:40;;;;;;;34.15;16.05;;;15.10;99.90;;;;;;5095340;28;20101;-73
2021/09/04 07:41:08;;;;;;;32.08;15.63;;;15.20;99.90;;;;;;5095738;28;20451;-75
2021/09/04 07:43:35;;;;;;;28.52;16.02;;;15.10;99.90;;;;;;5095588;28;20086;-74
2021/09/04 07:46:02;;;;;;;30.90;16.20;;;15.10;99.90;;;;;;5095696;28;20097;-75
2021/09/04 07:48:28;;;;;;;31.45;15.85;;;15.00;99.90;;;;;;5094952;28;20048;-76
2021/09/04 07:50:56;;;;;;;33.35;15.85;;;14.90;99.90;;;;;;5095615;28;20066;-77
2021/09/04 07:53:23;;;;;;;35.67;18.40;;;14.80;99.90;;;;;;5095511;28;20060;-75
2021/09/04 07:55:50;;;;;;;36.97;17.27;;;14.90;99.90;;;;;;5095439;28;20048;-75
2021/09/04 07:58:18;;;;;;;34.30;19.50;;;14.90;99.90;;;;;;5094790;28;20040;-75
2021/09/04 08:00:45;;;;;;;28.27;16.38;;;14.90;99.90;;;;;;5095388;28;20094;-74
2021/09/04 08:03:11;;;;;;;32.53;16.48;;;14.70;99.90;;;;;;5095406;28;20097;-74
2021/09/04 08:05:38;;;;;;;32.47;16.25;;;14.80;99.90;;;;;;5095232;28;20055;-76
2021/09/04 08:08:05;;;;;;;32.13;15.52;;;15.10;99.90;;;;;;5095173;28;20044;-75
2021/09/04 08:10:32;;;;;;;31.17;13.88;;;15.20;99.90;;;;;;5094759;28;20101;-75
2021/09/04 08:12:58;;;;;;;27.85;15.13;;;15.20;99.90;;;;;;5095213;28;20312;-74
2021/09/04 08:15:26;;;;;;;30.48;15.57;;;15.40;99.90;;;;;;5095115;28;20048;-75
2021/09/04 08:17:53;;;;;;;26.20;14.40;;;15.30;99.90;;;;;;5095147;28;20044;-75
2021/09/04 08:20:20;;;;;;;22.67;12.98;;;15.60;99.90;;;;;;5094258;28;20534;-75
2021/09/04 08:22:46;;;;;;;27.77;14.25;;;15.60;99.90;;;;;;5094930;28;20131;-74
2021/09/04 08:25:13;;;;;;;28.05;13.82;;;15.70;99.90;;;;;;5094680;28;20459;-74
2021/09/04 08:27:40;;;;;;;24.35;13.73;;;15.70;99.90;;;;;;5094819;28;20048;-75
2021/09/04 08:30:07;;;;;;;27.75;15.45;;;15.70;99.90;;;;;;5094377;28;20056;-75
2021/09/04 08:32:35;;;;;;;31.40;15.88;;;15.90;99.90;;;;;;5094231;28;20098;-75
2021/09/04 08:35:02;;;;;;;25.25;13.65;;;16.00;99.90;;;;;;5094822;28;20044;-75
2021/09/04 08:37:28;;;;;;;19.13;12.23;;;16.20;99.90;;;;;;5094930;28;20255;-75
2021/09/04 08:39:55;;;;;;;25.65;13.95;;;16.40;99.90;;;;;;5093864;28;20208;-75
2021/09/04 08:42:21;;;;;;;21.38;12.25;;;16.70;99.90;;;;;;5094624;28;20447;-74
2021/09/04 08:44:48;;;;;;;21.45;11.25;;;16.80;99.90;;;;;;5094795;28;20040;-74
2021/09/04 08:47:17;;;;;;;18.58;11.43;;;16.90;99.90;;;;;;5094550;28;20040;-74
2021/09/04 08:49:47;;;;;;;25.70;12.93;;;16.70;99.90;;;;;;5094272;28;20550;-75
2021/09/04 08:52:16;;;;;;;22.77;12.32;;;16.30;99.90;;;;;;5094378;28;20064;-74
2021/09/04 08:54:42;;;;;;;23.67;12.57;;;16.20;99.90;;;;;;5094698;28;20047;-74
2021/09/04 08:57:09;;;;;;;22.17;12.27;;;16.30;99.90;;;;;;5094241;28;20109;-75
2021/09/04 08:59:36;;;;;;;27.65;12.27;;;16.40;99.90;;;;;;5093748;28;20515;-75
2021/09/04 09:02:10;;;;;;;23.55;14.18;;;16.40;99.90;;;;;;5094216;28;20048;-74
2021/09/04 09:04:37;;;;;;;26.55;13.13;;;16.30;99.90;;;;;;5094306;28;20044;-75
2021/09/04 09:07:05;;;;;;;20.80;11.90;;;16.50;99.90;;;;;;5094008;28;20094;-75
2021/09/04 09:09:31;;;;;;;24.05;13.02;;;16.60;99.90;;;;;;5093865;28;20047;-76
2021/09/04 09:11:58;;;;;;;25.25;11.77;;;16.80;99.90;;;;;;5093946;28;20040;-76
2021/09/04 09:14:28;;;;;;;18.85;12.18;;;16.80;99.90;;;;;;5093933;28;20094;-76
2021/09/04 09:16:57;;;;;;;22.48;12.65;;;17.10;99.90;;;;;;5093949;28;20086;-75
2021/09/04 09:19:27;;;;;;;21.85;12.57;;;17.30;99.90;;;;;;5093942;28;20051;-74
2021/09/04 09:21:56;;;;;;;20.02;12.57;;;17.30;99.90;;;;;;5094208;28;20048;-74
2021/09/04 09:24:26;;;;;;;22.85;14.27;;;17.50;99.90;;;;;;5093874;28;20050;-74
2021/09/04 09:26:55;;;;;;;21.73;12.95;;;17.80;99.90;;;;;;5094069;28;20139;-74
2021/09/04 09:29:24;;;;;;;20.65;12.00;;;17.90;99.90;;;;;;5095528;28;20048;-74
2021/09/04 09:31:59;;;;;;;22.48;11.45;;;17.80;99.90;;;;;;5097963;28;20051;-75
2021/09/04 09:34:26;;;;;;;25.40;13.23;;;17.60;99.90;;;;;;5097869;28;20040;-75
2021/09/04 09:36:55;;;;;;;21.75;12.35;;;17.90;99.90;;;;;;5093529;28;20044;-74
2021/09/04 09:39:27;;;;;;;20.88;12.38;;;18.00;99.90;;;;;;5092862;28;20549;-75
2021/09/04 09:41:55;;;;;;;18.70;12.02;;;18.30;99.90;;;;;;5093528;28;20133;-76
2021/09/04 09:44:23;;;;;;;24.77;13.60;;;18.80;99.90;;;;;;5093324;28;20047;-75
2021/09/04 09:46:51;;;;;;;19.10;11.18;;;19.10;99.90;;;;;;5093696;28;20093;-74
2021/09/04 09:49:18;;;;;;;20.90;13.85;;;19.50;99.90;;;;;;5096071;28;20059;-74
2021/09/04 09:51:46;;;;;;;22.58;12.65;;;19.20;99.90;;;;;;5096627;28;20044;-74
2021/09/04 09:54:13;;;;;;;19.13;11.40;;;18.90;99.90;;;;;;5096935;28;20069;-74
2021/09/04 09:56:41;;;;;;;19.83;11.88;;;19.00;99.90;;;;;;5097350;28;20071;-74
2021/09/04 09:59:12;;;;;;;22.13;12.85;;;19.20;99.90;;;;;;5097482;28;20385;-73
2021/09/04 10:01:41;;;;;;;17.50;11.55;;;19.30;99.90;;;;;;5097728;28;20044;-72
2021/09/04 10:04:12;;;;;;;21.50;12.20;;;19.20;99.90;;;;;;5097783;28;20044;-73
2021/09/04 10:06:39;;;;;;;21.25;11.82;;;19.10;99.90;;;;;;5097137;28;20047;-74
2021/09/04 10:09:06;;;;;;;25.70;12.82;;;18.70;99.90;;;;;;5098007;28;20044;-73
2021/09/04 10:11:36;;;;;;;23.80;12.57;;;18.60;99.90;;;;;;5098948;28;20048;-72
2021/09/04 10:14:05;;;;;;;20.88;11.63;;;18.70;99.90;;;;;;5098093;28;20040;-74
2021/09/04 10:16:33;;;;;;;19.90;11.27;;;18.70;99.90;;;;;;5099770;28;20052;-76
2021/09/04 10:19:00;;;;;;;17.77;10.88;;;18.90;99.90;;;;;;5097651;28;20424;-74
2021/09/04 10:21:29;;;;;;;19.48;11.73;;;18.90;99.90;;;;;;5097432;28;20048;-73
2021/09/04 10:23:56;;;;;;;21.60;11.25;;;19.30;99.90;;;;;;5108110;28;20048;-74
2021/09/04 10:26:27;;;;;;;21.08;12.60;;;19.90;99.90;;;;;;5111675;28;20051;-75
2021/09/04 10:28:58;;;;;;;;;;;19.80;99.90;;;;;;5105817;28;20048;-72
2021/09/04 10:31:56;;;;;;;18.45;11.75;;;20.00;99.90;;;;;;5104824;28;19920;-74
2021/09/04 10:34:29;;;;;;;42.70;24.63;;;20.20;99.90;;;;;;5093635;28;20109;-75
2021/09/04 10:36:57;;;;;;;20.27;11.50;;;20.30;99.90;;;;;;5095514;28;20048;-74
2021/09/04 10:39:24;;;;;;;23.15;11.95;;;20.40;99.90;;;;;;5094425;28;20044;-74
2021/09/04 10:41:52;;;;;;;22.17;10.88;;;20.30;99.90;;;;;;5093155;28;20044;-75
2021/09/04 10:44:23;;;;;;;19.02;11.25;;;20.10;99.90;;;;;;5093355;28;20048;-77
2021/09/04 10:46:51;;;;;;;20.23;12.38;;;20.50;99.90;;;;;;5094779;28;20044;-73
2021/09/04 10:49:39;;;;;;;20.13;11.80;;;20.20;99.90;;;;;;5092437;28;20051;-73
2021/09/04 10:52:06;;;;;;;18.35;11.68;;;20.40;99.90;;;;;;5092206;28;20048;-75
2021/09/04 10:55:01;;;;;;;20.20;10.98;;;20.40;99.90;;;;;;5091963;28;20557;-76
2021/09/04 10:57:43;;;;;;;16.30;9.70;;;20.20;99.90;;;;;;5092081;28;20109;-75
2021/09/04 11:00:21;;;;;;;20.77;11.70;;;20.40;99.90;;;;;;5091653;28;20040;-75
2021/09/04 11:02:51;;;;;;;18.27;10.70;;;20.50;99.90;;;;;;5092148;28;20555;-76
2021/09/04 11:05:40;;;;;;;20.25;12.15;;;21.00;99.90;;;;;;5091824;28;20450;-76
2021/09/04 11:08:10;;;;;;;20.63;10.95;;;22.00;99.90;;;;;;5091935;28;20101;-76
2021/09/04 11:10:38;;;;;;;18.88;12.30;;;21.50;99.90;;;;;;5091484;28;20044;-74
2021/09/04 11:13:36;;;;;;;20.10;12.35;;;21.70;99.90;;;;;;5091974;28;20044;-75
2021/09/04 11:16:29;;;;;;;21.52;13.05;;;22.20;99.90;;;;;;5091692;28;20044;-74
2021/09/04 11:19:02;;;;;;;20.20;11.63;;;22.30;99.90;;;;;;5091915;28;20488;-73
2021/09/04 11:21:31;;;;;;;18.63;10.43;;;22.20;99.90;;;;;;5091594;28;20040;-74
2021/09/04 11:23:57;;;;;;;18.35;10.52;;;22.00;99.90;;;;;;5091500;28;20493;-74
2021/09/04 11:26:24;;;;;;;20.45;12.75;;;21.60;99.90;;;;;;5091658;28;20044;-75
2021/09/04 11:28:56;;;;;;;21.38;12.18;;;21.10;99.90;;;;;;5091394;28;20040;-77
2021/09/04 11:31:24;;;;;;;19.35;11.60;;;20.90;99.90;;;;;;5091680;28;20044;-75
2021/09/04 11:33:52;;;;;;;20.48;11.50;;;21.70;99.90;;;;;;5091730;28;20113;-76
2021/09/04 11:36:31;;;;;;;20.33;11.95;;;21.80;99.90;;;;;;5091519;28;20040;-76
2021/09/04 11:38:58;;;;;;;19.38;11.63;;;21.50;99.90;;;;;;5090980;28;20048;-76
2021/09/04 11:41:26;;;;;;;17.85;11.90;;;21.70;99.90;;;;;;5091666;28;20118;-76
2021/09/04 11:43:53;;;;;;;16.83;12.25;;;21.80;99.90;;;;;;5091859;28;20044;-76
2021/09/04 11:46:25;;;;;;;20.05;11.75;;;22.20;99.90;;;;;;5091685;28;20048;-75
2021/09/04 11:48:56;;;;;;;16.90;11.73;;;23.00;99.90;;;;;;5091117;28;20071;-77
2021/09/04 11:51:24;;;;;;;17.65;11.77;;;23.10;99.90;;;;;;5091481;28;20047;-76
2021/09/04 11:53:59;;;;;;;17.30;11.98;;;23.10;99.90;;;;;;5091541;28;20106;-78
2021/09/04 11:56:29;;;;;;;17.17;10.98;;;22.90;99.90;;;;;;5091577;28;20127;-73
2021/09/04 11:59:05;;;;;;;19.13;10.70;;;22.60;99.90;;;;;;5091104;28;20188;-74
2021/09/04 12:01:33;;;;;;;16.45;10.05;;;21.90;99.90;;;;;;5091276;28;20078;-74
2021/09/04 12:04:00;;;;;;;19.10;12.27;;;21.60;99.90;;;;;;5091308;28;20098;-75
2021/09/04 12:06:26;;;;;;;20.95;11.43;;;21.60;99.90;;;;;;5091442;28;20039;-74
2021/09/04 12:08:54;;;;;;;22.70;10.63;;;21.70;99.90;;;;;;5090953;28;20076;-76
2021/09/04 12:11:21;;;;;;;17.33;10.98;;;22.30;99.90;;;;;;5091193;28;20044;-76
2021/09/04 12:13:48;;;;;;;22.73;12.85;;;22.30;99.90;;;;;;5091049;28;20048;-77
2021/09/04 12:16:18;;;;;;;14.02;9.73;;;22.30;99.90;;;;;;5091019;28;20051;-76
2021/09/04 12:18:46;;;;;;;14.93;9.65;;;23.00;99.90;;;;;;5093531;28;20052;-75
2021/09/04 12:21:21;;;;;;;15.50;10.18;;;23.40;99.90;;;;;;5095349;28;20083;-76
2021/09/04 12:23:49;;;;;;;16.00;11.15;;;23.50;99.90;;;;;;5094958;28;20048;-76
2021/09/04 12:26:16;;;;;;;16.27;10.38;;;23.10;99.90;;;;;;5095146;28;20044;-76
2021/09/04 12:28:43;;;;;;;16.38;11.10;;;22.70;99.90;;;;;;5094503;28;20070;-76
2021/09/04 12:31:10;;;;;;;15.68;10.00;;;22.70;99.90;;;;;;5094773;28;20125;-74